Zim Virginia — 4XFV — position and weather

sailwx.info

Track history (hours):
 
Tides and Currents Weather Stations Pressure Air Temp Water Temp Dewpoint Dewpoint Depression Visibility Wind Speed Wind Dir Waves Ship Positions

Zim Virginia

Last reported at 2018-Jun-16 05:02 UTC. Time now 2018-Jun-18 03:24 UTC.
Position N 31°12' E 032°20'.

Length 294.12 m; beam 32.3 m; draft 13.5 m.

Type: Ship (hazmat cat A). MMSI: 428002000.

Date/timePositionNaut miles runAvg speedWind from/ knotsBaromVisibWave heightAir tempDewpointWater temp
2018-Jun-16 05:02N 31°12' E 032°20'1 6.0
2018-Jun-16 04:55N 31°13' E 032°21'3 7.1
2018-Jun-16 04:30N 31°16' E 032°21'611.2
2018-Jun-16 04:00N 31°21' E 032°23'4 7.3
2018-Jun-16 03:30N 31°24' E 032°21'3 3.7
2018-Jun-16 02:46N 31°26' E 032°18'0 0.2
2018-Jun-16 02:28N 31°26' E 032°18'0 0.1
2018-Jun-16 01:58N 31°26' E 032°19'0 0.1
2018-Jun-16 01:20N 31°26' E 032°18'0 0.0
2018-Jun-16 00:53N 31°26' E 032°18'0 0.1
2018-Jun-16 00:29N 31°26' E 032°18'0 0.0
2018-Jun-15 23:59N 31°26' E 032°18'0 0.0
2018-Jun-15 23:26N 31°26' E 032°18'0 0.0
2018-Jun-15 22:59N 31°26' E 032°18'0 0.1
2018-Jun-15 22:29N 31°26' E 032°18'0 0.0
2018-Jun-15 21:53N 31°26' E 032°18'0 0.0
2018-Jun-15 21:29N 31°26' E 032°18'0 0.1
2018-Jun-15 20:53N 31°26' E 032°18'0 1.1
2018-Jun-15 20:30N 31°26' E 032°18'4 8.9
2018-Jun-15 20:01N 31°29' E 032°14'1413.5
2018-Jun-15 19:00N 31°39' E 032°03'713.5
2018-Jun-15 18:30N 31°44' E 031°58'713.2
2018-Jun-15 17:58N 31°48' E 031°51'613.5
2018-Jun-15 17:30N 31°50' E 031°44'713.5
2018-Jun-15 17:00N 31°52' E 031°36'713.6
2018-Jun-15 16:30N 31°55' E 031°29'813.6
2018-Jun-15 15:56N 31°58' E 031°21'613.6
2018-Jun-15 15:30N 32°00' E 031°14'713.5
2018-Jun-15 15:00N 32°03' E 031°07'713.5
2018-Jun-15 14:30N 32°06' E 030°60'713.5
2018-Jun-15 14:00N 32°08' E 030°52'713.5
2018-Jun-15 13:30N 32°10' E 030°45'2113.5
2018-Jun-15 11:58N 32°18' E 030°22'913.7
2018-Jun-15 11:20N 32°22' E 030°13'513.7
2018-Jun-15 11:00N 32°24' E 030°08'2513.4
2018-Jun-15 09:10N 32°33' E 029°41'213.0
2018-Jun-15 09:00N 32°33' E 029°38'812.7
2018-Jun-15 08:24N 32°36' E 029°30'  
2018-Jun-12 15:22N 36°48' E 012°46'512.7
2018-Jun-12 15:00N 36°49' E 012°40'612.8
2018-Jun-12 14:30N 36°51' E 012°32'713.0
2018-Jun-12 13:59N 36°53' E 012°24'613.2
2018-Jun-12 13:30N 36°56' E 012°17'713.1
2018-Jun-12 13:00N 36°58' E 012°09'1013.1
2018-Jun-12 12:14N 37°02' E 011°58'513.3
2018-Jun-12 11:53N 37°04' E 011°52'54013.3
2018-Jun-10 19:22N 36°48' E 000°37'513.3
2018-Jun-10 19:00N 36°47' E 000°31'813.3
2018-Jun-10 18:26N 36°46' E 000°22'613.2
2018-Jun-10 18:00N 36°45' E 000°15'913.3
2018-Jun-10 17:20N 36°43' E 000°04'713.5
2018-Jun-10 16:50N 36°41' W 000°04'1213.5
2018-Jun-10 15:59N 36°39' W 000°18'613.2
2018-Jun-10 15:30N 36°37' W 000°26'613.0
2018-Jun-10 15:00N 36°35' W 000°34'713.1
2018-Jun-10 14:30N 36°35' W 000°42'21813.7
2018-Jun-09 22:32N 36°01' W 005°09'114.8
2018-Jun-09 22:28N 36°01' W 005°10'816.7
2018-Jun-09 22:00N 35°59' W 005°20'917.0
2018-Jun-09 21:30N 35°57' W 005°30'2514.4
2018-Jun-09 19:44N 35°54' W 006°01'313.1
2018-Jun-09 19:28N 35°53' W 006°05'  
2018-Jun-06 13:31N 39°39' W 027°45'1513.7
2018-Jun-06 12:27N 39°41' W 028°04'713.7
2018-Jun-06 11:58N 39°42' W 028°13'1114.0
2018-Jun-06 11:12N 39°43' W 028°27'314.2
2018-Jun-06 11:00N 39°44' W 028°30'714.2
2018-Jun-06 10:30N 39°44' W 028°40'714.1
2018-Jun-06 10:00N 39°45' W 028°49'714.0
2018-Jun-06 09:30N 39°46' W 028°58'713.7
2018-Jun-06 09:00N 39°47' W 029°07'713.8
2018-Jun-06 08:30N 39°48' W 029°15'713.7
2018-Jun-06 08:00N 39°48' W 029°24'713.8
2018-Jun-06 07:30N 39°49' W 029°33'713.7
2018-Jun-06 07:00N 39°50' W 029°42'713.5
2018-Jun-06 06:30N 39°50' W 029°51'713.7
2018-Jun-06 06:00N 39°51' W 029°60'713.6
2018-Jun-06 05:30N 39°52' W 030°09'  
Track history (hours):
 
Tides and Currents Weather Stations Pressure Air Temp Water Temp Dewpoint Dewpoint Depression Visibility Wind Speed Wind Dir Waves Ship Positions

Zim Virginia

Last reported at 2018-Jun-16 05:02 UTC. Time now 2018-Jun-18 03:24 UTC.
Position N 31°12' E 032°20'.

Length 294.12 m; beam 32.3 m; draft 13.5 m.

Type: Ship (hazmat cat A). MMSI: 428002000.

Date/timePositionNaut miles runAvg speedWind from/ knotsBaromVisibWave heightAir tempDewpointWater temp
2018-Jun-16 05:02N 31°12' E 032°20'1 6.0
2018-Jun-16 04:55N 31°13' E 032°21'3 7.1
2018-Jun-16 04:30N 31°16' E 032°21'611.2
2018-Jun-16 04:00N 31°21' E 032°23'4 7.3
2018-Jun-16 03:30N 31°24' E 032°21'3 3.7
2018-Jun-16 02:46N 31°26' E 032°18'0 0.2
2018-Jun-16 02:28N 31°26' E 032°18'0 0.1
2018-Jun-16 01:58N 31°26' E 032°19'0 0.1
2018-Jun-16 01:20N 31°26' E 032°18'0 0.0
2018-Jun-16 00:53N 31°26' E 032°18'0 0.1
2018-Jun-16 00:29N 31°26' E 032°18'0 0.0
2018-Jun-15 23:59N 31°26' E 032°18'0 0.0
2018-Jun-15 23:26N 31°26' E 032°18'0 0.0
2018-Jun-15 22:59N 31°26' E 032°18'0 0.1
2018-Jun-15 22:29N 31°26' E 032°18'0 0.0
2018-Jun-15 21:53N 31°26' E 032°18'0 0.0
2018-Jun-15 21:29N 31°26' E 032°18'0 0.1
2018-Jun-15 20:53N 31°26' E 032°18'0 1.1
2018-Jun-15 20:30N 31°26' E 032°18'4 8.9
2018-Jun-15 20:01N 31°29' E 032°14'1413.5
2018-Jun-15 19:00N 31°39' E 032°03'713.5
2018-Jun-15 18:30N 31°44' E 031°58'713.2
2018-Jun-15 17:58N 31°48' E 031°51'613.5
2018-Jun-15 17:30N 31°50' E 031°44'713.5
2018-Jun-15 17:00N 31°52' E 031°36'713.6
2018-Jun-15 16:30N 31°55' E 031°29'813.6
2018-Jun-15 15:56N 31°58' E 031°21'613.6
2018-Jun-15 15:30N 32°00' E 031°14'713.5
2018-Jun-15 15:00N 32°03' E 031°07'713.5
2018-Jun-15 14:30N 32°06' E 030°60'713.5
2018-Jun-15 14:00N 32°08' E 030°52'713.5
2018-Jun-15 13:30N 32°10' E 030°45'2113.5
2018-Jun-15 11:58N 32°18' E 030°22'913.7
2018-Jun-15 11:20N 32°22' E 030°13'513.7
2018-Jun-15 11:00N 32°24' E 030°08'2513.4
2018-Jun-15 09:10N 32°33' E 029°41'213.0
2018-Jun-15 09:00N 32°33' E 029°38'812.7
2018-Jun-15 08:24N 32°36' E 029°30'  
2018-Jun-12 15:22N 36°48' E 012°46'512.7
2018-Jun-12 15:00N 36°49' E 012°40'612.8
2018-Jun-12 14:30N 36°51' E 012°32'713.0
2018-Jun-12 13:59N 36°53' E 012°24'613.2
2018-Jun-12 13:30N 36°56' E 012°17'713.1
2018-Jun-12 13:00N 36°58' E 012°09'1013.1
2018-Jun-12 12:14N 37°02' E 011°58'513.3
2018-Jun-12 11:53N 37°04' E 011°52'54013.3
2018-Jun-10 19:22N 36°48' E 000°37'513.3
2018-Jun-10 19:00N 36°47' E 000°31'813.3
2018-Jun-10 18:26N 36°46' E 000°22'613.2
2018-Jun-10 18:00N 36°45' E 000°15'913.3
2018-Jun-10 17:20N 36°43' E 000°04'713.5
2018-Jun-10 16:50N 36°41' W 000°04'1213.5
2018-Jun-10 15:59N 36°39' W 000°18'613.2
2018-Jun-10 15:30N 36°37' W 000°26'613.0
2018-Jun-10 15:00N 36°35' W 000°34'713.1
2018-Jun-10 14:30N 36°35' W 000°42'21813.7
2018-Jun-09 22:32N 36°01' W 005°09'114.8
2018-Jun-09 22:28N 36°01' W 005°10'816.7
2018-Jun-09 22:00N 35°59' W 005°20'917.0
2018-Jun-09 21:30N 35°57' W 005°30'2514.4
2018-Jun-09 19:44N 35°54' W 006°01'313.1
2018-Jun-09 19:28N 35°53' W 006°05'  
2018-Jun-06 13:31N 39°39' W 027°45'1513.7
2018-Jun-06 12:27N 39°41' W 028°04'713.7
2018-Jun-06 11:58N 39°42' W 028°13'1114.0
2018-Jun-06 11:12N 39°43' W 028°27'314.2
2018-Jun-06 11:00N 39°44' W 028°30'714.2
2018-Jun-06 10:30N 39°44' W 028°40'714.1
2018-Jun-06 10:00N 39°45' W 028°49'714.0
2018-Jun-06 09:30N 39°46' W 028°58'713.7
2018-Jun-06 09:00N 39°47' W 029°07'713.8
2018-Jun-06 08:30N 39°48' W 029°15'713.7
2018-Jun-06 08:00N 39°48' W 029°24'713.8
2018-Jun-06 07:30N 39°49' W 029°33'713.7
2018-Jun-06 07:00N 39°50' W 029°42'713.5
2018-Jun-06 06:30N 39°50' W 029°51'713.7
2018-Jun-06 06:00N 39°51' W 029°60'713.6
2018-Jun-06 05:30N 39°52' W 030°09'  

Dump ship's entire track history